PILOTS ONLINE: 265    ATC ONLINE: 42

FGSL

Malabo Airport

Location

IATA SSG
City Malabo
Country  Equatorial Guinea
Latitude 3° 45' 18" N
Longitude 8° 42' 31" E
Elevation 76 ft
Type Medium Airport

Map

Weather

METAR
2014/09/03 02:00
FGSL 030200Z 24007KT 7000 -RADZ SCT006 FEW016CB BKN060 24/22 Q1014 TEMPO 4000 TSRADZ
TAF
2014/09/02 18:03
TAF FGSL 021700Z 0218/0324 24008KT 8000 BKN010 FEW016CB 
      TEMPO 0218/0306 3000 RADZ BKN010 FEW018CB 
      TEMPO 0310/0316 4000 RADZ BKN008 FEW016CB

Runways

05/23 9647 ft / 151 ft

Outbound flights

Callsign Flying to Pilot ATD/STD ETA Aircraft

Inbound flights

Callsign Flying from Pilot ATD ETA Aircraft